createdAt,value
2018-05-27T00:00:58.793Z,14.54
2018-05-27T00:01:58.832Z,14.42
2018-05-27T00:02:58.869Z,14.45
2018-05-27T00:03:58.908Z,14.35
2018-05-27T00:04:58.946Z,14.36
2018-05-27T00:05:58.983Z,14.28
2018-05-27T00:06:59.019Z,14.32
2018-05-27T00:07:59.061Z,14.20
2018-05-27T00:08:59.094Z,14.14
2018-05-27T00:09:59.135Z,14.24
2018-05-27T00:10:59.172Z,14.35
2018-05-27T00:11:59.209Z,14.24
2018-05-27T00:12:59.246Z,14.28
2018-05-27T00:13:59.335Z,14.28
2018-05-27T00:14:59.325Z,14.18
2018-05-27T00:15:59.360Z,14.21
2018-05-27T00:16:59.395Z,14.20
2018-05-27T00:17:59.434Z,14.21
2018-05-27T00:18:59.472Z,14.20
2018-05-27T00:19:59.507Z,14.20
2018-05-27T00:20:59.545Z,14.17
2018-05-27T00:21:59.591Z,14.20
2018-05-27T00:22:59.621Z,14.15
2018-05-27T00:23:59.658Z,14.03
2018-05-27T00:24:59.694Z,14.06
2018-05-27T00:25:59.732Z,14.04
2018-05-27T00:26:59.771Z,14.00
2018-05-27T00:27:59.806Z,13.95
2018-05-27T00:28:59.843Z,13.95
2018-05-27T00:29:59.882Z,13.96
2018-05-27T00:30:59.919Z,13.87
2018-05-27T00:31:59.955Z,13.96
2018-05-27T00:32:59.992Z,13.89
2018-05-27T00:34:00.032Z,14.02
2018-05-27T00:35:00.068Z,14.02
2018-05-27T00:36:00.105Z,14.06
2018-05-27T00:37:00.143Z,14.09
2018-05-27T00:38:00.189Z,14.12
2018-05-27T00:39:00.217Z,14.09
2018-05-27T00:40:00.257Z,14.10
2018-05-27T00:41:00.292Z,14.07
2018-05-27T00:42:00.329Z,14.04
2018-05-27T00:43:00.367Z,14.02
2018-05-27T00:44:00.403Z,13.95
2018-05-27T00:45:00.440Z,13.92
2018-05-27T00:46:00.476Z,13.99
2018-05-27T00:47:00.514Z,13.97
2018-05-27T00:48:00.555Z,13.85
2018-05-27T00:49:00.591Z,13.79
2018-05-27T00:50:00.631Z,13.82
2018-05-27T00:51:00.665Z,13.78
2018-05-27T00:52:00.701Z,13.82
2018-05-27T00:53:00.738Z,13.88
2018-05-27T00:54:00.776Z,13.78
2018-05-27T00:55:00.812Z,13.85
2018-05-27T00:56:00.851Z,13.79
2018-05-27T00:57:00.890Z,13.69
2018-05-27T00:58:00.923Z,13.70
2018-05-27T00:59:00.970Z,13.75
2018-05-27T01:00:01.009Z,13.71
2018-05-27T01:01:01.034Z,13.70
2018-05-27T01:02:01.073Z,13.82
2018-05-27T01:03:01.108Z,13.85
2018-05-27T01:04:01.154Z,13.84
2018-05-27T01:05:01.188Z,13.79
2018-05-27T01:06:01.219Z,13.79
2018-05-27T01:07:01.259Z,13.78
2018-05-27T01:08:01.295Z,13.75
2018-05-27T01:09:01.330Z,13.70
2018-05-27T01:10:01.368Z,13.63
2018-05-27T01:11:01.407Z,13.63
2018-05-27T01:12:01.444Z,13.67
2018-05-27T01:13:01.480Z,13.67
2018-05-27T01:14:01.516Z,13.70
2018-05-27T01:15:01.557Z,13.69
2018-05-27T01:16:01.593Z,13.70
2018-05-27T01:17:01.628Z,13.67
2018-05-27T01:18:01.671Z,13.73
2018-05-27T01:19:01.718Z,13.77
2018-05-27T01:20:01.740Z,13.66
2018-05-27T01:21:01.777Z,13.66
2018-05-27T01:22:01.915Z,13.66
2018-05-27T01:23:01.850Z,13.67
2018-05-27T01:24:01.888Z,13.64
2018-05-27T01:25:01.934Z,13.55
2018-05-27T01:26:01.963Z,13.55
2018-05-27T01:27:01.999Z,13.57
2018-05-27T01:28:02.036Z,13.60
2018-05-27T01:29:02.074Z,13.54
2018-05-27T01:30:02.108Z,13.59
2018-05-27T01:31:02.149Z,13.51
2018-05-27T01:32:02.186Z,13.54
2018-05-27T01:33:02.222Z,13.49
2018-05-27T01:34:02.265Z,13.46
2018-05-27T01:35:02.294Z,13.54
2018-05-27T01:36:02.333Z,13.46
2018-05-27T01:37:02.367Z,13.55
2018-05-27T01:38:02.407Z,13.44
2018-05-27T01:39:02.441Z,13.48
2018-05-27T01:40:02.479Z,13.52
2018-05-27T01:41:02.520Z,13.46
2018-05-27T01:42:02.553Z,13.46
2018-05-27T01:43:02.588Z,13.44
2018-05-27T01:44:02.627Z,13.33
2018-05-27T01:45:02.663Z,13.38
2018-05-27T01:46:02.700Z,13.33
2018-05-27T01:47:02.738Z,13.32
2018-05-27T01:48:02.780Z,13.28
2018-05-27T01:49:02.811Z,13.30
2018-05-27T01:50:02.850Z,13.32
2018-05-27T01:51:02.883Z,13.30
2018-05-27T01:52:02.922Z,13.32
2018-05-27T01:54:02.992Z,13.30
2018-05-27T01:55:03.041Z,13.29
2018-05-27T01:56:03.069Z,13.25
2018-05-27T01:57:03.104Z,13.20
2018-05-27T01:58:03.139Z,13.11
2018-05-27T01:59:03.189Z,13.10
2018-05-27T02:00:03.215Z,13.11
2018-05-27T02:01:03.249Z,13.23
2018-05-27T02:02:03.290Z,13.11
2018-05-27T02:03:03.324Z,13.11
2018-05-27T02:04:03.361Z,13.12
2018-05-27T02:05:03.396Z,13.14
2018-05-27T02:06:03.433Z,13.12
2018-05-27T02:07:03.475Z,13.01
2018-05-27T02:08:03.507Z,13.07
2018-05-27T02:09:03.693Z,13.00
2018-05-27T02:10:03.582Z,13.00
2018-05-27T02:11:03.619Z,13.05
2018-05-27T02:12:03.655Z,12.96
2018-05-27T02:13:03.691Z,13.00
2018-05-27T02:14:03.728Z,12.95
2018-05-27T02:15:03.780Z,12.87
2018-05-27T02:16:03.802Z,12.83
2018-05-27T02:17:03.840Z,12.83
2018-05-27T02:18:03.882Z,12.87
2018-05-27T02:19:03.912Z,12.83
2018-05-27T02:20:03.948Z,12.85
2018-05-27T02:21:03.986Z,12.96
2018-05-27T02:22:04.030Z,12.97
2018-05-27T02:23:04.062Z,12.95
2018-05-27T02:24:04.097Z,13.00
2018-05-27T02:25:04.131Z,13.00
2018-05-27T02:26:04.168Z,12.96
2018-05-27T02:27:04.204Z,13.01
2018-05-27T02:28:04.244Z,12.96
2018-05-27T02:29:04.278Z,13.00
2018-05-27T02:30:04.316Z,13.04
2018-05-27T02:31:04.351Z,13.01
2018-05-27T02:32:04.388Z,13.01
2018-05-27T02:33:04.431Z,12.90
2018-05-27T02:34:04.469Z,12.83
2018-05-27T02:35:04.497Z,12.87
2018-05-27T02:36:04.534Z,12.79
2018-05-27T02:37:04.572Z,12.82
2018-05-27T02:38:04.608Z,12.82
2018-05-27T02:39:04.645Z,12.85
2018-05-27T02:40:04.691Z,12.89
2018-05-27T02:41:04.722Z,12.83
2018-05-27T02:42:04.762Z,12.87
2018-05-27T02:43:04.792Z,12.95
2018-05-27T02:44:04.841Z,12.95
2018-05-27T02:45:04.864Z,12.83
2018-05-27T02:47:04.939Z,12.92
2018-05-27T02:48:04.976Z,12.82
2018-05-27T02:49:05.011Z,12.83
2018-05-27T02:50:05.048Z,12.83
2018-05-27T02:51:05.084Z,12.85
2018-05-27T02:52:05.122Z,12.90
2018-05-27T02:53:05.157Z,12.82
2018-05-27T02:54:05.194Z,12.85
2018-05-27T02:55:05.235Z,12.83
2018-05-27T02:56:05.268Z,12.85
2018-05-27T02:57:05.303Z,12.75
2018-05-27T02:58:05.341Z,12.77
2018-05-27T02:59:05.381Z,12.79
2018-05-27T03:00:05.416Z,12.78
2018-05-27T03:01:05.451Z,12.79
2018-05-27T03:02:05.488Z,12.77
2018-05-27T03:03:05.524Z,12.75
2018-05-27T03:04:05.559Z,12.72
2018-05-27T03:05:05.596Z,12.78
2018-05-27T03:06:05.633Z,12.71
2018-05-27T03:07:05.682Z,12.62
2018-05-27T03:08:05.707Z,12.77
2018-05-27T03:09:05.747Z,12.60
2018-05-27T03:10:05.778Z,12.60
2018-05-27T03:11:05.818Z,12.64
2018-05-27T03:12:05.856Z,12.64
2018-05-27T03:13:05.886Z,12.70
2018-05-27T03:14:05.923Z,12.71
2018-05-27T03:15:05.960Z,12.72
2018-05-27T03:16:06.000Z,12.82
2018-05-27T03:17:06.036Z,12.71
2018-05-27T03:18:06.072Z,12.71
2018-05-27T03:19:06.110Z,12.82
2018-05-27T03:20:06.144Z,12.86
2018-05-27T03:21:06.179Z,12.77
2018-05-27T03:22:06.216Z,12.79
2018-05-27T03:23:06.253Z,12.86
2018-05-27T03:24:06.291Z,12.89
2018-05-27T03:25:06.329Z,12.89
2018-05-27T03:26:06.363Z,12.82
2018-05-27T03:27:06.397Z,12.85
2018-05-27T03:29:06.471Z,12.78
2018-05-27T03:30:06.508Z,12.78
2018-05-27T03:31:06.544Z,12.78
2018-05-27T03:32:06.584Z,12.77
2018-05-27T03:33:06.620Z,12.71
2018-05-27T03:34:06.653Z,12.71
2018-05-27T03:35:06.696Z,12.72
2018-05-27T03:36:06.726Z,12.67
2018-05-27T03:37:06.764Z,12.62
2018-05-27T03:38:06.799Z,12.67
2018-05-27T03:39:06.837Z,12.74
2018-05-27T03:40:06.873Z,12.71
2018-05-27T03:41:06.909Z,12.77
2018-05-27T03:42:06.944Z,12.74
2018-05-27T03:43:06.981Z,12.72
2018-05-27T03:44:07.018Z,12.78
2018-05-27T03:45:07.053Z,12.86
2018-05-27T03:46:07.090Z,12.83
2018-05-27T03:47:07.126Z,12.89
2018-05-27T03:48:07.164Z,12.86
2018-05-27T03:49:07.199Z,12.86
2018-05-27T03:50:07.238Z,12.86
2018-05-27T03:51:07.282Z,12.97
2018-05-27T03:54:07.384Z,13.03
2018-05-27T03:55:07.420Z,13.03
2018-05-27T03:56:07.457Z,12.96
2018-05-27T03:57:07.491Z,12.96
2018-05-27T03:58:07.529Z,13.00
2018-05-27T03:59:07.619Z,13.00
2018-05-27T04:00:07.605Z,13.03
2018-05-27T04:01:07.636Z,13.05
2018-05-27T04:02:07.676Z,13.00
2018-05-27T04:03:07.710Z,13.14
2018-05-27T04:04:07.748Z,13.11
2018-05-27T04:05:07.786Z,13.14
2018-05-27T04:06:07.820Z,13.15
2018-05-27T04:07:07.858Z,13.12
2018-05-27T04:08:07.896Z,13.17
2018-05-27T04:09:07.933Z,13.17
2018-05-27T04:10:07.966Z,13.12
2018-05-27T04:11:08.003Z,13.17
2018-05-27T04:12:08.040Z,13.19
2018-05-27T04:13:08.075Z,13.25
2018-05-27T04:14:08.111Z,13.23
2018-05-27T04:15:08.148Z,13.28
2018-05-27T04:16:08.185Z,13.25
2018-05-27T04:17:08.222Z,13.30
2018-05-27T04:18:08.309Z,13.29
2018-05-27T04:19:08.309Z,13.30
2018-05-27T04:20:08.331Z,13.32
2018-05-27T04:21:08.367Z,13.41
2018-05-27T04:22:08.404Z,13.33
2018-05-27T04:23:08.444Z,13.45
2018-05-27T04:24:08.479Z,13.42
2018-05-27T04:25:08.513Z,13.45
2018-05-27T04:26:08.557Z,13.42
2018-05-27T04:27:08.588Z,13.54
2018-05-27T04:28:08.628Z,13.55
2018-05-27T04:29:08.659Z,13.52
2018-05-27T04:30:08.697Z,13.57
2018-05-27T04:31:08.734Z,13.63
2018-05-27T04:32:08.771Z,13.66
2018-05-27T04:33:08.807Z,13.69
2018-05-27T04:34:08.844Z,13.75
2018-05-27T04:35:08.883Z,13.67
2018-05-27T04:36:08.919Z,13.66
2018-05-27T04:37:08.954Z,13.78
2018-05-27T04:38:08.990Z,13.84
2018-05-27T04:39:09.032Z,13.88
2018-05-27T04:40:09.065Z,13.95
2018-05-27T04:41:09.104Z,13.92
2018-05-27T04:42:09.139Z,13.95
2018-05-27T04:43:09.178Z,14.04
2018-05-27T04:44:09.216Z,14.06
2018-05-27T04:45:09.251Z,13.97
2018-05-27T04:46:09.283Z,13.97
2018-05-27T04:47:09.322Z,14.09
2018-05-27T04:48:09.374Z,14.10
2018-05-27T04:49:09.410Z,14.14
2018-05-27T04:50:09.436Z,14.14
2018-05-27T04:51:09.469Z,14.18
2018-05-27T04:52:09.509Z,14.17
2018-05-27T04:53:09.548Z,14.29
2018-05-27T04:54:09.580Z,14.35
2018-05-27T04:55:09.617Z,14.40
2018-05-27T04:56:09.656Z,14.43
2018-05-27T04:57:09.693Z,14.51
2018-05-27T04:58:09.731Z,14.57
2018-05-27T05:00:09.804Z,14.65
2018-05-27T05:01:09.844Z,14.62
2018-05-27T05:02:09.877Z,14.75
2018-05-27T05:03:09.915Z,14.86
2018-05-27T05:04:09.952Z,14.84
2018-05-27T05:05:09.991Z,14.91
2018-05-27T05:06:10.028Z,14.99
2018-05-27T05:07:10.063Z,15.03
2018-05-27T05:08:10.103Z,15.01
2018-05-27T05:09:10.139Z,14.99
2018-05-27T05:10:10.178Z,15.09
2018-05-27T05:11:10.216Z,15.11
2018-05-27T05:12:10.255Z,15.10
2018-05-27T05:13:10.288Z,15.20
2018-05-27T05:14:10.325Z,15.28
2018-05-27T05:15:10.364Z,15.28
2018-05-27T05:16:10.407Z,15.29
2018-05-27T05:17:10.440Z,15.36
2018-05-27T05:18:10.474Z,15.44
2018-05-27T05:19:10.512Z,15.49
2018-05-27T05:20:10.556Z,15.68
2018-05-27T05:21:10.587Z,15.74
2018-05-27T05:22:10.665Z,15.86
2018-05-27T05:23:10.663Z,16.12
2018-05-27T05:24:10.702Z,16.41
2018-05-27T05:25:10.737Z,16.46
2018-05-27T05:26:10.775Z,16.41
2018-05-27T05:27:10.818Z,16.38
2018-05-27T05:28:10.852Z,16.38
2018-05-27T05:29:10.890Z,16.41
2018-05-27T05:30:10.928Z,16.43
2018-05-27T05:31:10.970Z,16.43
2018-05-27T05:32:11.003Z,16.45
2018-05-27T05:33:11.040Z,16.43
2018-05-27T05:34:11.080Z,16.53
2018-05-27T05:35:11.120Z,16.61
2018-05-27T05:36:11.158Z,16.61
2018-05-27T05:37:11.197Z,16.67
2018-05-27T05:38:11.246Z,16.73
2018-05-27T05:39:11.269Z,16.89
2018-05-27T05:40:11.316Z,16.86
2018-05-27T05:41:11.347Z,16.81
2018-05-27T05:42:11.387Z,16.85
2018-05-27T05:43:11.425Z,16.97
2018-05-27T05:44:11.463Z,17.03
2018-05-27T05:45:11.501Z,17.14
2018-05-27T05:46:11.540Z,17.19
2018-05-27T05:47:11.582Z,17.23
2018-05-27T05:48:11.625Z,17.36
2018-05-27T05:49:11.723Z,17.43
2018-05-27T05:50:11.698Z,17.48
2018-05-27T05:51:11.734Z,17.59
2018-05-27T05:52:11.774Z,17.71
2018-05-27T05:53:11.810Z,17.72
2018-05-27T05:54:11.856Z,17.84
2018-05-27T05:55:11.887Z,17.79
2018-05-27T05:56:11.927Z,17.90
2018-05-27T05:57:11.964Z,17.92
2018-05-27T05:58:12.058Z,17.99
2018-05-27T05:59:12.044Z,18.12
2018-05-27T06:00:12.083Z,18.17
2018-05-27T06:01:12.159Z,18.37
2018-05-27T06:02:12.160Z,18.47
2018-05-27T06:03:12.198Z,18.69
2018-05-27T06:04:12.238Z,18.75
2018-05-27T06:05:12.276Z,18.87
2018-05-27T06:06:12.316Z,18.98
2018-05-27T06:07:12.359Z,19.06
2018-05-27T06:08:12.396Z,19.16
2018-05-27T06:09:12.437Z,19.25
2018-05-27T06:10:12.477Z,19.43
2018-05-27T06:11:12.517Z,19.47
2018-05-27T06:12:12.569Z,19.47
2018-05-27T06:13:12.595Z,19.46
2018-05-27T06:14:12.637Z,19.56
2018-05-27T06:15:12.674Z,19.66
2018-05-27T06:16:12.714Z,19.84
2018-05-27T06:17:12.754Z,19.87
2018-05-27T06:18:12.795Z,19.98
2018-05-27T06:19:12.835Z,20.03
2018-05-27T06:20:12.873Z,20.14
2018-05-27T06:21:12.921Z,20.21
2018-05-27T06:22:12.953Z,20.36
2018-05-27T06:23:12.996Z,20.47
2018-05-27T06:24:13.036Z,20.52
2018-05-27T06:25:13.085Z,20.55
2018-05-27T06:26:13.130Z,20.67
2018-05-27T06:27:13.156Z,20.73
2018-05-27T06:28:13.196Z,20.64
2018-05-27T06:29:13.235Z,20.72
2018-05-27T06:30:13.276Z,20.91
2018-05-27T06:31:13.317Z,20.99
2018-05-27T06:32:13.358Z,21.07
2018-05-27T06:33:13.399Z,21.09
2018-05-27T06:34:13.441Z,21.14
2018-05-27T06:35:13.483Z,21.22
2018-05-27T06:36:13.531Z,21.25
2018-05-27T06:37:13.563Z,21.28
2018-05-27T06:38:13.605Z,21.25
2018-05-27T06:39:13.646Z,21.21
2018-05-27T06:40:13.688Z,21.12
2018-05-27T06:41:13.728Z,21.13
2018-05-27T06:42:13.769Z,20.98
2018-05-27T06:43:13.821Z,20.92
2018-05-27T06:44:13.858Z,20.97
2018-05-27T06:45:13.893Z,20.91
2018-05-27T06:46:13.939Z,20.82
2018-05-27T06:47:13.976Z,20.92
2018-05-27T06:48:14.018Z,20.84
2018-05-27T06:49:14.058Z,20.80
2018-05-27T06:50:14.099Z,20.72
2018-05-27T06:51:14.149Z,20.82
2018-05-27T06:52:14.185Z,20.95
2018-05-27T06:53:14.223Z,21.03
2018-05-27T06:54:14.266Z,21.01
2018-05-27T06:55:14.310Z,21.04
2018-05-27T06:56:14.348Z,20.87
2018-05-27T06:57:14.390Z,20.94
2018-05-27T06:58:14.432Z,20.99
2018-05-27T06:59:14.486Z,21.12
2018-05-27T07:00:14.518Z,21.14
2018-05-27T07:01:14.556Z,21.32
2018-05-27T07:02:14.600Z,21.24
2018-05-27T07:03:14.641Z,21.17
2018-05-27T07:04:14.681Z,21.32
2018-05-27T07:05:14.723Z,21.25
2018-05-27T07:06:14.764Z,21.31
2018-05-27T07:07:14.807Z,21.21
2018-05-27T07:08:14.848Z,21.32
2018-05-27T07:09:14.911Z,21.29
2018-05-27T07:10:14.932Z,21.40
2018-05-27T07:11:14.979Z,21.42
2018-05-27T07:12:15.015Z,21.38
2018-05-27T07:13:15.057Z,21.50
2018-05-27T07:14:15.098Z,21.56
2018-05-27T07:15:15.139Z,21.61
2018-05-27T07:16:15.181Z,21.65
2018-05-27T07:17:15.226Z,21.72
2018-05-27T07:18:15.268Z,21.72
2018-05-27T07:19:15.305Z,21.90
2018-05-27T07:20:15.348Z,21.91
2018-05-27T07:21:15.398Z,21.90
2018-05-27T07:22:15.434Z,21.94
2018-05-27T07:23:15.473Z,21.98
2018-05-27T07:25:15.607Z,22.07
2018-05-27T07:26:15.602Z,22.02
2018-05-27T07:27:15.640Z,22.22
2018-05-27T07:28:15.755Z,22.27
2018-05-27T07:29:15.721Z,22.33
2018-05-27T07:30:15.766Z,22.40
2018-05-27T07:31:15.806Z,22.47
2018-05-27T07:32:15.855Z,22.47
2018-05-27T07:33:15.896Z,22.51
2018-05-27T07:34:15.933Z,22.55
2018-05-27T07:35:15.974Z,22.67
2018-05-27T07:36:16.016Z,22.73
2018-05-27T07:37:16.057Z,22.68
2018-05-27T07:38:16.100Z,22.72
2018-05-27T07:39:16.142Z,22.76
2018-05-27T07:40:16.184Z,22.73
2018-05-27T07:41:16.226Z,22.86
2018-05-27T07:42:16.270Z,23.04
2018-05-27T07:43:16.312Z,22.97
2018-05-27T07:44:16.353Z,23.05
2018-05-27T07:45:16.395Z,23.16
2018-05-27T07:46:16.447Z,23.23
2018-05-27T07:47:16.478Z,23.38
2018-05-27T07:48:16.526Z,23.46
2018-05-27T07:49:16.567Z,23.57
2018-05-27T07:50:16.604Z,23.72
2018-05-27T07:51:16.652Z,23.72
2018-05-27T07:52:16.691Z,23.60
2018-05-27T07:53:16.756Z,23.58
2018-05-27T07:54:16.775Z,23.63
2018-05-27T07:55:16.815Z,23.68
2018-05-27T07:56:16.858Z,23.68
2018-05-27T07:57:16.903Z,23.84
2018-05-27T07:58:17.036Z,24.00
2018-05-27T07:59:16.987Z,24.10
2018-05-27T08:00:17.032Z,24.20
2018-05-27T08:01:17.071Z,24.20
2018-05-27T08:02:17.115Z,24.40
2018-05-27T08:03:17.162Z,24.46
2018-05-27T08:04:17.205Z,24.55
2018-05-27T08:05:17.242Z,24.55
2018-05-27T08:06:17.293Z,24.71
2018-05-27T08:07:17.329Z,24.76
2018-05-27T08:08:17.375Z,24.81
2018-05-27T08:09:17.438Z,24.90
2018-05-27T08:10:17.463Z,24.93
2018-05-27T08:11:17.507Z,25.05
2018-05-27T08:12:17.546Z,25.09
2018-05-27T08:13:17.588Z,24.96
2018-05-27T08:14:17.633Z,25.02
2018-05-27T08:15:17.677Z,25.18
2018-05-27T08:16:17.717Z,25.03
2018-05-27T08:17:17.759Z,25.23
2018-05-27T08:18:17.803Z,25.54
2018-05-27T08:19:17.846Z,25.69
2018-05-27T08:20:17.897Z,25.72
2018-05-27T08:21:17.938Z,25.87
2018-05-27T08:22:17.991Z,26.01
2018-05-27T08:23:18.025Z,26.15
2018-05-27T08:24:18.068Z,26.15
2018-05-27T08:25:18.109Z,26.26
2018-05-27T08:26:18.154Z,26.29
2018-05-27T08:27:18.198Z,26.45
2018-05-27T08:28:18.243Z,26.35
2018-05-27T08:29:18.340Z,26.43
2018-05-27T08:30:18.332Z,26.57
2018-05-27T08:31:18.383Z,26.72
2018-05-27T08:32:18.418Z,26.62
2018-05-27T08:33:18.467Z,26.69
2018-05-27T08:34:18.508Z,26.81
2018-05-27T08:35:18.556Z,26.73
2018-05-27T08:36:18.597Z,26.91
2018-05-27T08:37:18.653Z,26.94
2018-05-27T08:38:18.689Z,26.99
2018-05-27T08:39:18.732Z,26.97
2018-05-27T08:40:18.779Z,26.85
2018-05-27T08:41:18.821Z,26.47
2018-05-27T08:42:18.866Z,26.47
2018-05-27T08:43:18.910Z,26.35
2018-05-27T08:44:18.962Z,26.30
2018-05-27T08:45:19.001Z,26.36
2018-05-27T08:46:19.045Z,26.39
2018-05-27T08:47:19.091Z,26.28
2018-05-27T08:48:19.143Z,26.28
2018-05-27T08:49:19.179Z,26.18
2018-05-27T08:50:19.224Z,26.13
2018-05-27T08:51:19.270Z,26.02
2018-05-27T08:52:19.333Z,26.09
2018-05-27T08:53:19.372Z,26.06
2018-05-27T08:54:19.408Z,26.13
2018-05-27T08:55:19.469Z,26.20
2018-05-27T08:56:19.492Z,26.07
2018-05-27T08:57:19.580Z,26.20
2018-05-27T08:58:19.584Z,26.18
2018-05-27T08:59:19.629Z,26.32
2018-05-27T09:00:19.695Z,26.39
2018-05-27T09:01:19.737Z,26.50
2018-05-27T09:02:19.768Z,26.44
2018-05-27T09:03:19.809Z,26.50
2018-05-27T09:04:19.865Z,26.60
2018-05-27T09:05:19.899Z,26.65
2018-05-27T09:06:20.072Z,26.62
2018-05-27T09:07:19.991Z,26.65
2018-05-27T09:08:20.046Z,26.50
2018-05-27T09:09:20.082Z,26.54
2018-05-27T09:10:20.123Z,26.36
2018-05-27T09:11:20.167Z,26.43
2018-05-27T09:12:20.212Z,26.37
2018-05-27T09:13:20.259Z,26.39
2018-05-27T09:14:20.301Z,26.44
2018-05-27T09:15:20.416Z,26.32
2018-05-27T09:16:20.402Z,26.36
2018-05-27T09:17:20.437Z,26.21
2018-05-27T09:18:20.484Z,26.18
2018-05-27T09:19:20.525Z,26.13
2018-05-27T09:20:20.579Z,26.05
2018-05-27T09:21:20.615Z,26.06
2018-05-27T09:23:20.706Z,26.01
2018-05-27T09:24:20.759Z,25.83
2018-05-27T09:25:20.796Z,25.99
2018-05-27T09:26:20.840Z,26.02
2018-05-27T09:27:20.884Z,25.91
2018-05-27T09:29:20.977Z,25.88
2018-05-27T09:30:21.018Z,25.79
2018-05-27T09:31:21.070Z,25.88
2018-05-27T09:32:21.108Z,25.87
2018-05-27T09:33:21.156Z,25.88
2018-05-27T09:34:21.197Z,25.90
2018-05-27T09:35:21.243Z,25.94
2018-05-27T09:36:21.286Z,25.94
2018-05-27T09:37:21.337Z,25.97
2018-05-27T09:38:21.377Z,26.07
2018-05-27T09:39:21.418Z,26.20
2018-05-27T09:40:21.463Z,26.18
2018-05-27T09:41:21.506Z,26.30
2018-05-27T09:42:21.551Z,26.32
2018-05-27T09:43:21.596Z,26.17
2018-05-27T09:44:21.642Z,26.23
2018-05-27T09:45:21.708Z,26.39
2018-05-27T09:46:21.729Z,26.39
2018-05-27T09:47:21.774Z,26.33
2018-05-27T09:48:21.824Z,26.47
2018-05-27T09:50:21.924Z,26.52
2018-05-27T09:51:21.971Z,26.58
2018-05-27T09:52:21.998Z,26.48
2018-05-27T09:53:22.041Z,26.44
2018-05-27T09:54:22.088Z,26.45
2018-05-27T09:55:22.137Z,26.45
2018-05-27T09:56:22.181Z,26.50
2018-05-27T09:57:22.219Z,26.51
2018-05-27T09:58:22.268Z,26.48
2018-05-27T09:59:22.327Z,26.62
2018-05-27T10:00:22.359Z,26.77
2018-05-27T10:01:22.399Z,26.87
2018-05-27T10:02:22.446Z,26.91
2018-05-27T10:03:22.537Z,27.07
2018-05-27T10:04:22.675Z,27.24
2018-05-27T10:05:22.576Z,27.18
2018-05-27T10:06:22.620Z,27.10
2018-05-27T10:07:22.687Z,27.10
2018-05-27T10:08:22.719Z,27.00
2018-05-27T10:09:22.754Z,27.13
2018-05-27T10:10:22.819Z,27.29
2018-05-27T10:11:22.849Z,27.25
2018-05-27T10:12:22.897Z,27.36
2018-05-27T10:13:22.934Z,27.34
2018-05-27T10:14:22.980Z,27.47
2018-05-27T10:16:23.171Z,27.60
2018-05-27T10:17:23.113Z,27.65
2018-05-27T10:18:23.169Z,27.60
2018-05-27T10:19:23.204Z,27.55
2018-05-27T10:21:23.312Z,27.55
2018-05-27T10:22:23.353Z,27.49
2018-05-27T10:23:23.387Z,27.47
2018-05-27T10:24:23.437Z,27.51
2018-05-27T10:25:23.477Z,27.54
2018-05-27T10:26:23.531Z,27.41
2018-05-27T10:27:23.577Z,27.49
2018-05-27T10:28:23.611Z,27.51
2018-05-27T10:29:23.669Z,27.40
2018-05-27T10:30:23.701Z,27.29
2018-05-27T10:31:23.748Z,27.31
2018-05-27T10:32:23.800Z,27.36
2018-05-27T10:33:23.837Z,27.43
2018-05-27T10:34:23.884Z,27.34
2018-05-27T10:35:23.939Z,27.31
2018-05-27T10:36:23.974Z,27.27
2018-05-27T10:37:24.025Z,27.32
2018-05-27T10:38:24.063Z,27.36
2018-05-27T10:39:24.110Z,27.39
2018-05-27T10:40:24.156Z,27.37
2018-05-27T10:41:24.197Z,27.34
2018-05-27T10:42:24.244Z,27.40
2018-05-27T10:43:24.290Z,27.37
2018-05-27T10:44:24.338Z,27.24
2018-05-27T10:45:24.386Z,27.18
2018-05-27T10:46:24.426Z,27.19
2018-05-27T10:47:24.508Z,27.25
2018-05-27T10:48:24.523Z,27.18
2018-05-27T10:49:24.559Z,27.09
2018-05-27T10:50:24.604Z,27.03
2018-05-27T10:51:24.649Z,27.12
2018-05-27T10:52:24.697Z,27.13
2018-05-27T10:53:24.738Z,27.21
2018-05-27T10:54:24.785Z,27.22
2018-05-27T10:55:24.837Z,27.25
2018-05-27T10:56:25.028Z,27.25
2018-05-27T10:57:24.923Z,27.22
2018-05-27T10:58:24.977Z,27.32
2018-05-27T10:59:25.010Z,27.19
2018-05-27T11:00:25.057Z,27.28
2018-05-27T11:01:25.100Z,27.29
2018-05-27T11:02:25.145Z,27.37
2018-05-27T11:03:25.197Z,27.40
2018-05-27T11:04:25.236Z,27.46
2018-05-27T11:05:25.279Z,27.46
2018-05-27T11:06:25.327Z,27.67
2018-05-27T11:07:25.375Z,27.59
2018-05-27T11:08:25.414Z,27.60
2018-05-27T11:09:25.475Z,27.55
2018-05-27T11:10:25.512Z,27.60
2018-05-27T11:12:25.595Z,27.69
2018-05-27T11:14:25.684Z,27.72
2018-05-27T11:15:25.735Z,27.74
2018-05-27T11:16:25.776Z,27.75
2018-05-27T11:17:25.821Z,27.70
2018-05-27T11:18:25.879Z,27.84
2018-05-27T11:19:25.911Z,27.87
2018-05-27T11:20:25.968Z,27.84
2018-05-27T11:21:26.002Z,27.84
2018-05-27T11:22:26.046Z,27.90
2018-05-27T11:23:26.094Z,27.81
2018-05-27T11:24:26.146Z,27.82
2018-05-27T11:25:26.195Z,27.77
2018-05-27T11:26:26.225Z,27.69
2018-05-27T11:27:26.271Z,27.77
2018-05-27T11:28:26.318Z,27.88
2018-05-27T11:29:26.369Z,27.92
2018-05-27T11:30:26.442Z,28.06
2018-05-27T11:31:26.454Z,28.04
2018-05-27T11:32:26.497Z,28.06
2018-05-27T11:33:26.542Z,28.14
2018-05-27T11:34:26.585Z,28.30
2018-05-27T11:35:26.648Z,28.25
2018-05-27T11:36:26.677Z,28.34
2018-05-27T11:37:26.724Z,28.37
2018-05-27T11:38:26.767Z,28.36
2018-05-27T11:39:26.813Z,28.39
2018-05-27T11:40:26.865Z,28.33
2018-05-27T11:41:26.905Z,28.14
2018-05-27T11:42:26.994Z,28.12
2018-05-27T11:43:26.994Z,28.03
2018-05-27T11:44:27.047Z,28.11
2018-05-27T11:45:27.084Z,27.96
2018-05-27T11:46:27.134Z,27.92
2018-05-27T11:47:27.177Z,28.00
2018-05-27T11:48:27.223Z,27.92
2018-05-27T11:49:27.269Z,28.06
2018-05-27T11:50:27.327Z,28.04
2018-05-27T11:51:27.362Z,28.03
2018-05-27T11:52:27.409Z,27.93
2018-05-27T11:53:27.448Z,27.81
2018-05-27T11:54:27.499Z,27.84
2018-05-27T11:55:27.551Z,27.93
2018-05-27T11:56:27.593Z,27.92
2018-05-27T11:57:27.630Z,27.94
2018-05-27T11:58:27.674Z,28.12
2018-05-27T11:59:27.722Z,28.07
2018-05-27T12:00:27.767Z,28.00
2018-05-27T12:01:27.812Z,28.04
2018-05-27T12:02:27.859Z,28.19
2018-05-27T12:03:27.903Z,28.14
2018-05-27T12:04:27.949Z,28.30
2018-05-27T12:05:28.001Z,28.39
2018-05-27T12:06:28.040Z,28.41
2018-05-27T12:07:28.088Z,28.46
2018-05-27T12:08:28.131Z,28.48
2018-05-27T12:09:28.345Z,28.33
2018-05-27T12:10:28.226Z,28.54
2018-05-27T12:11:28.269Z,28.46
2018-05-27T12:12:28.384Z,28.64
2018-05-27T12:13:28.366Z,28.55
2018-05-27T12:14:28.431Z,28.55
2018-05-27T12:15:28.451Z,28.49
2018-05-27T12:16:28.496Z,28.52
2018-05-27T12:17:28.548Z,28.55
2018-05-27T12:18:28.586Z,28.51
2018-05-27T12:19:28.647Z,28.68
2018-05-27T12:20:28.684Z,28.70
2018-05-27T12:21:28.734Z,28.68
2018-05-27T12:22:28.776Z,28.93
2018-05-27T12:23:28.820Z,29.08
2018-05-27T12:24:28.863Z,29.15
2018-05-27T12:25:28.907Z,29.27
2018-05-27T12:26:28.958Z,29.36
2018-05-27T12:27:29.001Z,29.53
2018-05-27T12:29:29.095Z,29.68
2018-05-27T12:30:29.139Z,29.73
2018-05-27T12:31:29.183Z,29.92
2018-05-27T12:32:29.231Z,29.97
2018-05-27T12:33:29.274Z,30.10
2018-05-27T12:34:29.322Z,30.26
2018-05-27T12:35:29.366Z,30.27
2018-05-27T12:36:29.430Z,30.38
2018-05-27T12:37:29.464Z,30.26
2018-05-27T12:38:29.512Z,30.27
2018-05-27T12:39:29.555Z,30.35
2018-05-27T12:40:29.600Z,30.39
2018-05-27T12:41:29.650Z,30.54
2018-05-27T12:42:29.703Z,30.51
2018-05-27T12:43:29.740Z,30.49
2018-05-27T12:44:29.788Z,30.46
2018-05-27T12:45:29.835Z,30.35
2018-05-27T12:46:29.887Z,30.45
2018-05-27T12:47:29.932Z,30.54
2018-05-27T12:48:29.975Z,30.61
2018-05-27T12:49:30.021Z,30.60
2018-05-27T12:50:30.113Z,30.76
2018-05-27T12:51:30.116Z,30.70
2018-05-27T12:52:30.166Z,30.58
2018-05-27T12:53:30.220Z,30.31
2018-05-27T12:54:30.258Z,30.29
2018-05-27T12:55:30.307Z,30.27
2018-05-27T12:56:30.365Z,30.26
2018-05-27T12:57:30.398Z,30.38
2018-05-27T12:58:30.444Z,30.42
2018-05-27T12:59:30.491Z,30.54
2018-05-27T13:00:30.540Z,30.58
2018-05-27T13:01:30.587Z,30.72
2018-05-27T13:02:30.658Z,30.86
2018-05-27T13:03:30.688Z,30.91
2018-05-27T13:04:30.731Z,30.84
2018-05-27T13:05:30.776Z,30.69
2018-05-27T13:06:30.845Z,30.47
2018-05-27T13:07:30.871Z,30.27
2018-05-27T13:08:30.922Z,30.26